createdAt,value
2018-02-14T00:01:10.019Z,5.72
2018-02-14T00:03:37.043Z,4.75
2018-02-14T00:06:03.339Z,5.55
2018-02-14T00:08:29.650Z,5.07
2018-02-14T00:10:55.959Z,5.00
2018-02-14T00:13:22.229Z,4.93
2018-02-14T00:15:48.526Z,5.32
2018-02-14T00:18:15.564Z,5.25
2018-02-14T00:20:42.614Z,5.37
2018-02-14T00:23:08.872Z,5.87
2018-02-14T00:25:35.183Z,5.72
2018-02-14T00:28:02.217Z,5.65
2018-02-14T00:30:28.523Z,4.90
2018-02-14T00:32:54.799Z,5.62
2018-02-14T00:35:21.111Z,4.60
2018-02-14T00:37:47.379Z,4.78
2018-02-14T00:40:13.662Z,5.15
2018-02-14T00:42:39.956Z,6.60
2018-02-14T00:45:06.224Z,4.53
2018-02-14T00:47:32.516Z,5.43
2018-02-14T00:49:58.794Z,5.72
2018-02-14T00:52:25.079Z,6.00
2018-02-14T00:54:51.375Z,5.90
2018-02-14T00:57:17.663Z,5.50
2018-02-14T00:59:43.956Z,6.37
2018-02-14T01:02:10.235Z,6.22
2018-02-14T01:04:36.540Z,7.57
2018-02-14T01:07:02.820Z,5.18
2018-02-14T01:09:29.126Z,6.70
2018-02-14T01:11:55.435Z,6.53
2018-02-14T01:14:21.716Z,6.55
2018-02-14T01:16:48.020Z,4.90
2018-02-14T01:19:16.164Z,6.40
2018-02-14T01:21:48.571Z,5.75
2018-02-14T01:24:14.872Z,6.30
2018-02-14T01:26:41.170Z,5.55
2018-02-14T01:29:07.432Z,6.20
2018-02-14T01:31:33.695Z,4.95
2018-02-14T01:34:00.754Z,5.53
2018-02-14T01:36:27.776Z,6.53
2018-02-14T01:38:54.057Z,6.57
2018-02-14T01:41:20.332Z,5.50
2018-02-14T01:43:46.671Z,5.82
2018-02-14T01:46:13.698Z,6.65
2018-02-14T01:48:40.763Z,5.07
2018-02-14T01:51:07.097Z,6.37
2018-02-14T01:53:33.395Z,6.32
2018-02-14T01:55:59.699Z,6.60
2018-02-14T01:58:26.611Z,5.90
2018-02-14T02:00:52.891Z,7.00
2018-02-14T02:03:19.161Z,6.72
2018-02-14T02:05:45.419Z,5.60
2018-02-14T02:08:11.807Z,6.15
2018-02-14T02:10:38.095Z,6.93
2018-02-14T02:13:04.390Z,7.95
2018-02-14T02:15:31.405Z,6.40
2018-02-14T02:17:57.688Z,6.97
2018-02-14T02:20:24.006Z,6.20
2018-02-14T02:22:51.037Z,6.78
2018-02-14T02:25:17.319Z,7.50
2018-02-14T02:27:43.596Z,7.18
2018-02-14T02:30:09.887Z,5.43
2018-02-14T02:32:36.162Z,6.90
2018-02-14T02:35:02.466Z,7.28
2018-02-14T02:37:29.660Z,6.85
2018-02-14T02:40:08.980Z,5.70
2018-02-14T02:42:35.303Z,5.90
2018-02-14T02:45:01.577Z,6.82
2018-02-14T02:47:27.867Z,7.20
2018-02-14T02:49:54.151Z,7.75
2018-02-14T02:52:20.460Z,6.60
2018-02-14T02:54:46.789Z,7.80
2018-02-14T02:57:13.095Z,7.03
2018-02-14T02:59:39.380Z,7.37
2018-02-14T03:02:05.735Z,6.60
2018-02-14T03:04:32.063Z,8.05
2018-02-14T03:06:58.360Z,6.93
2018-02-14T03:09:24.690Z,5.75
2018-02-14T03:11:50.972Z,6.80
2018-02-14T03:14:17.266Z,6.75
2018-02-14T03:16:43.571Z,7.07
2018-02-14T03:19:09.845Z,5.62
2018-02-14T03:21:36.122Z,6.97
2018-02-14T03:24:02.447Z,7.62
2018-02-14T03:26:29.480Z,8.18
2018-02-14T03:28:56.533Z,7.62
2018-02-14T03:31:23.538Z,6.95
2018-02-14T03:33:49.819Z,6.78
2018-02-14T03:36:16.842Z,6.75
2018-02-14T03:38:43.116Z,6.72
2018-02-14T03:41:09.412Z,7.10
2018-02-14T03:43:35.742Z,6.30
2018-02-14T03:46:02.815Z,8.30
2018-02-14T03:48:29.093Z,6.32
2018-02-14T03:50:55.411Z,6.53
2018-02-14T03:53:21.688Z,7.30
2018-02-14T03:55:48.734Z,7.62
2018-02-14T03:58:15.788Z,6.82
2018-02-14T04:00:42.095Z,6.50
2018-02-14T04:03:08.371Z,7.25
2018-02-14T04:05:34.653Z,8.02
2018-02-14T04:08:00.940Z,6.80
2018-02-14T04:10:27.223Z,6.60
2018-02-14T04:12:53.498Z,8.45
2018-02-14T04:15:19.776Z,7.25
2018-02-14T04:17:46.070Z,7.85
2018-02-14T04:20:12.385Z,7.18
2018-02-14T04:22:38.663Z,8.10
2018-02-14T04:25:05.001Z,8.02
2018-02-14T04:27:32.052Z,7.55
2018-02-14T04:29:58.377Z,7.90
2018-02-14T04:32:24.651Z,7.78
2018-02-14T04:34:50.920Z,6.37
2018-02-14T04:37:17.199Z,7.53
2018-02-14T04:39:43.468Z,8.68
2018-02-14T04:42:09.791Z,8.13
2018-02-14T04:44:36.091Z,8.43
2018-02-14T04:47:02.748Z,7.60
2018-02-14T04:49:29.027Z,8.68
2018-02-14T04:51:55.322Z,7.32
2018-02-14T04:54:21.615Z,7.70
2018-02-14T04:56:47.899Z,7.85
2018-02-14T04:59:14.189Z,7.90
2018-02-14T05:01:40.472Z,7.32
2018-02-14T05:04:06.779Z,8.43
2018-02-14T05:06:33.107Z,6.97
2018-02-14T05:08:59.404Z,7.55
2018-02-14T05:11:25.731Z,8.50
2018-02-14T05:13:52.025Z,7.57
2018-02-14T05:16:19.065Z,8.75
2018-02-14T05:18:45.414Z,7.70
2018-02-14T05:21:12.451Z,8.77
2018-02-14T05:23:38.739Z,7.68
2018-02-14T05:26:05.010Z,8.05
2018-02-14T05:28:31.694Z,7.28
2018-02-14T05:30:58.700Z,8.60
2018-02-14T05:33:24.979Z,8.05
2018-02-14T05:35:51.296Z,7.70
2018-02-14T05:38:17.587Z,8.25
2018-02-14T05:40:43.868Z,8.55
2018-02-14T05:43:10.127Z,8.48
2018-02-14T05:45:36.451Z,9.40
2018-02-14T05:48:02.735Z,9.10
2018-02-14T05:50:29.761Z,7.80
2018-02-14T05:52:56.111Z,8.80
2018-02-14T05:55:23.135Z,10.27
2018-02-14T05:57:49.467Z,7.28
2018-02-14T06:00:15.747Z,8.73
2018-02-14T06:02:42.047Z,9.52
2018-02-14T06:05:09.067Z,8.23
2018-02-14T06:07:35.360Z,9.85
2018-02-14T06:10:01.655Z,9.48
2018-02-14T06:12:28.711Z,9.60
2018-02-14T06:14:54.993Z,10.68
2018-02-14T06:17:21.260Z,9.75
2018-02-14T06:19:48.306Z,10.98
2018-02-14T06:22:14.585Z,9.15
2018-02-14T06:24:40.906Z,8.98
2018-02-14T06:27:07.238Z,10.18
2018-02-14T06:29:33.514Z,9.90
2018-02-14T06:32:00.565Z,9.77
2018-02-14T06:34:26.887Z,10.65
2018-02-14T06:36:53.179Z,9.82
2018-02-14T06:39:19.478Z,9.70
2018-02-14T06:41:45.842Z,9.65
2018-02-14T06:44:12.122Z,12.07
2018-02-14T06:46:39.163Z,10.27
2018-02-14T06:49:05.489Z,10.80
2018-02-14T06:51:32.510Z,10.52
2018-02-14T06:53:58.806Z,9.65
2018-02-14T06:56:25.095Z,10.88
2018-02-14T06:58:51.412Z,10.35
2018-02-14T07:01:17.707Z,11.55
2018-02-14T07:03:43.999Z,8.80
2018-02-14T07:06:10.292Z,9.48
2018-02-14T07:08:36.583Z,10.90
2018-02-14T07:11:02.883Z,9.32
2018-02-14T07:13:29.936Z,11.10
2018-02-14T07:15:56.964Z,9.02
2018-02-14T07:18:23.335Z,10.20
2018-02-14T07:20:49.634Z,9.07
2018-02-14T07:26:11.363Z,10.95
2018-02-14T07:28:37.683Z,11.40
2018-02-14T07:31:03.974Z,10.45
2018-02-14T07:33:30.295Z,12.15
2018-02-14T07:35:56.608Z,9.93
2018-02-14T07:38:23.715Z,11.45
2018-02-14T07:40:49.996Z,10.23
2018-02-14T07:43:17.057Z,10.88
2018-02-14T07:45:43.342Z,9.52
2018-02-14T07:48:10.453Z,9.63
2018-02-14T07:50:36.748Z,10.00
2018-02-14T07:53:03.068Z,11.68
2018-02-14T07:55:29.421Z,11.65
2018-02-14T07:57:55.750Z,11.65
2018-02-14T08:00:22.808Z,10.20
2018-02-14T08:02:49.108Z,10.10
2018-02-14T08:05:15.397Z,11.40
2018-02-14T08:07:41.682Z,11.12
2018-02-14T08:10:08.731Z,11.25
2018-02-14T08:12:35.060Z,10.98
2018-02-14T08:15:02.104Z,11.60
2018-02-14T08:17:29.156Z,11.70
2018-02-14T08:19:56.189Z,11.98
2018-02-14T08:22:23.250Z,10.40
2018-02-14T08:24:50.277Z,11.15
2018-02-14T08:27:16.631Z,12.80
2018-02-14T08:29:43.643Z,11.48
2018-02-14T08:32:09.956Z,12.15
2018-02-14T08:34:36.263Z,10.90
2018-02-14T08:37:02.559Z,11.65
2018-02-14T08:39:29.636Z,10.80
2018-02-14T08:41:55.917Z,11.90
2018-02-14T08:44:22.232Z,11.32
2018-02-14T08:46:48.544Z,11.57
2018-02-14T08:49:14.808Z,11.43
2018-02-14T08:51:41.286Z,9.63
2018-02-14T08:54:08.306Z,11.10
2018-02-14T08:56:35.368Z,11.77
2018-02-14T08:59:02.487Z,11.27
2018-02-14T09:01:28.775Z,11.98
2018-02-14T09:03:55.063Z,11.85
2018-02-14T09:06:21.347Z,10.27
2018-02-14T09:08:47.630Z,12.18
2018-02-14T09:11:14.674Z,11.20
2018-02-14T09:13:41.003Z,11.75
2018-02-14T09:16:07.308Z,13.32
2018-02-14T09:18:33.601Z,13.57
2018-02-14T09:20:59.903Z,12.27
2018-02-14T09:23:26.190Z,13.60
2018-02-14T09:25:52.482Z,11.82
2018-02-14T09:28:19.496Z,11.32
2018-02-14T09:30:45.791Z,13.35
2018-02-14T09:33:12.083Z,12.35
2018-02-14T09:35:38.347Z,12.23
2018-02-14T09:38:04.627Z,13.50
2018-02-14T09:40:31.670Z,12.50
2018-02-14T09:42:57.935Z,12.10
2018-02-14T09:45:24.239Z,11.05
2018-02-14T09:47:51.274Z,13.00
2018-02-14T09:50:17.571Z,12.65
2018-02-14T09:52:43.867Z,11.27
2018-02-14T09:55:10.133Z,11.68
2018-02-14T09:57:36.423Z,12.57
2018-02-14T10:00:02.958Z,13.50
2018-02-14T10:02:29.211Z,12.73
2018-02-14T10:04:55.490Z,12.40
2018-02-14T10:07:21.783Z,12.00
2018-02-14T10:09:48.082Z,11.90
2018-02-14T10:12:14.380Z,11.80
2018-02-14T10:14:41.442Z,10.90
2018-02-14T10:17:08.486Z,10.60
2018-02-14T10:19:35.527Z,11.85
2018-02-14T10:22:01.862Z,11.93
2018-02-14T10:24:28.170Z,12.90
2018-02-14T10:26:55.214Z,12.32
2018-02-14T10:29:21.519Z,11.00
2018-02-14T10:31:47.836Z,11.38
2018-02-14T10:34:14.179Z,11.43
2018-02-14T10:36:40.446Z,11.80
2018-02-14T10:39:07.475Z,10.35
2018-02-14T10:41:33.738Z,12.55
2018-02-14T10:44:00.780Z,10.57
2018-02-14T10:46:27.089Z,11.00
2018-02-14T10:48:53.376Z,10.88
2018-02-14T10:51:19.675Z,11.05
2018-02-14T10:53:45.963Z,12.75
2018-02-14T10:56:12.235Z,11.07
2018-02-14T10:58:39.320Z,11.32
2018-02-14T11:01:05.660Z,10.10
2018-02-14T11:03:44.790Z,11.73
2018-02-14T11:06:12.098Z,10.55
2018-02-14T11:08:38.384Z,10.40
2018-02-14T11:11:04.671Z,9.25
2018-02-14T11:13:31.710Z,11.52
2018-02-14T11:15:58.017Z,10.77
2018-02-14T11:18:24.313Z,11.38
2018-02-14T11:20:50.606Z,11.35
2018-02-14T11:23:16.901Z,12.02
2018-02-14T11:25:43.232Z,11.00
2018-02-14T11:28:09.511Z,10.00
2018-02-14T11:30:35.814Z,10.55
2018-02-14T11:33:02.099Z,11.00
2018-02-14T11:35:29.247Z,9.52
2018-02-14T11:37:55.552Z,8.93
2018-02-14T11:40:21.836Z,8.85
2018-02-14T11:42:48.124Z,10.25
2018-02-14T11:45:14.496Z,9.18
2018-02-14T11:47:40.795Z,10.50
2018-02-14T11:50:07.072Z,8.88
2018-02-14T11:52:33.419Z,9.77
2018-02-14T11:54:59.688Z,9.15
2018-02-14T11:57:25.980Z,9.02
2018-02-14T11:59:53.038Z,10.68
2018-02-14T12:02:20.039Z,10.45
2018-02-14T12:04:46.355Z,9.82
2018-02-14T12:07:12.662Z,11.05
2018-02-14T12:09:38.979Z,9.95
2018-02-14T12:12:06.054Z,10.40
2018-02-14T12:14:32.314Z,8.20
2018-02-14T12:16:58.623Z,8.60
2018-02-14T12:19:24.960Z,7.37
2018-02-14T12:21:51.259Z,9.02
2018-02-14T12:24:17.568Z,10.77
2018-02-14T12:26:43.899Z,7.82
2018-02-14T12:29:10.980Z,8.50
2018-02-14T12:31:37.326Z,10.82
2018-02-14T12:34:03.628Z,9.60
2018-02-14T12:36:29.930Z,11.60
2018-02-14T12:38:56.975Z,9.68
2018-02-14T12:41:23.277Z,8.85
2018-02-14T12:43:49.587Z,8.55
2018-02-14T12:46:15.875Z,8.75
2018-02-14T12:48:42.953Z,8.85
2018-02-14T12:51:09.336Z,8.93
2018-02-14T12:53:36.394Z,8.77
2018-02-14T12:56:03.462Z,8.70
2018-02-14T12:58:29.774Z,11.12
2018-02-14T13:00:56.045Z,7.60
2018-02-14T13:03:22.326Z,10.32
2018-02-14T13:05:48.646Z,8.60
2018-02-14T13:08:14.947Z,9.55
2018-02-14T13:10:41.228Z,8.25
2018-02-14T13:13:07.512Z,7.93
2018-02-14T13:15:33.807Z,8.18
2018-02-14T13:18:00.099Z,6.95
2018-02-14T13:20:26.416Z,6.87
2018-02-14T13:22:52.689Z,7.60
2018-02-14T13:25:19.711Z,7.15
2018-02-14T13:27:46.065Z,7.07
2018-02-14T13:30:12.355Z,6.75
2018-02-14T13:32:38.660Z,6.82
2018-02-14T13:35:04.987Z,6.25
2018-02-14T13:37:31.325Z,7.62
2018-02-14T13:39:57.606Z,7.15
2018-02-14T13:42:24.628Z,7.30
2018-02-14T13:44:50.959Z,7.50
2018-02-14T13:47:17.264Z,7.30
2018-02-14T13:49:43.547Z,7.78
2018-02-14T13:52:10.585Z,7.40
2018-02-14T13:54:36.891Z,7.43
2018-02-14T13:57:03.240Z,7.95
2018-02-14T13:59:30.320Z,6.87
2018-02-14T14:01:56.632Z,6.62
2018-02-14T14:04:22.903Z,7.90
2018-02-14T14:06:49.191Z,7.93
2018-02-14T14:09:15.466Z,8.18
2018-02-14T14:11:41.774Z,6.93
2018-02-14T14:14:08.818Z,7.25
2018-02-14T14:16:35.847Z,6.60
2018-02-14T14:19:02.158Z,7.03
2018-02-14T14:21:28.438Z,7.70
2018-02-14T14:23:54.732Z,5.97
2018-02-14T14:26:21.038Z,7.43
2018-02-14T14:28:47.347Z,7.00
2018-02-14T14:31:13.615Z,6.05
2018-02-14T14:33:39.981Z,6.35
2018-02-14T14:36:07.006Z,6.18
2018-02-14T14:38:33.304Z,7.37
2018-02-14T14:40:59.588Z,5.90
2018-02-14T14:43:26.593Z,6.60
2018-02-14T14:45:52.927Z,6.55
2018-02-14T14:48:19.228Z,6.30
2018-02-14T14:50:45.504Z,6.20
2018-02-14T14:53:11.801Z,7.37
2018-02-14T14:55:38.131Z,6.22
2018-02-14T14:58:05.649Z,5.57
2018-02-14T15:00:31.965Z,5.75
2018-02-14T15:02:59.016Z,5.95
2018-02-14T15:05:26.054Z,6.10
2018-02-14T15:07:53.115Z,6.37
2018-02-14T15:10:20.157Z,6.00
2018-02-14T15:12:46.552Z,5.28
2018-02-14T15:15:12.939Z,5.30
2018-02-14T15:17:39.319Z,6.55
2018-02-14T15:20:05.588Z,6.10
2018-02-14T15:22:32.623Z,6.07
2018-02-14T15:24:59.654Z,5.50
2018-02-14T15:27:25.935Z,5.05
2018-02-14T15:29:52.247Z,5.45
2018-02-14T15:32:19.286Z,5.10
2018-02-14T15:34:46.323Z,5.47
2018-02-14T15:37:12.625Z,6.55
2018-02-14T15:39:38.948Z,5.35
2018-02-14T15:42:05.264Z,5.95
2018-02-14T15:44:31.548Z,5.12
2018-02-14T15:46:57.887Z,5.53
2018-02-14T15:49:24.143Z,5.50
2018-02-14T15:51:50.486Z,5.32
2018-02-14T15:54:16.755Z,5.18
2018-02-14T15:56:43.099Z,5.25
2018-02-14T15:59:09.403Z,5.95
2018-02-14T16:01:35.700Z,7.12
2018-02-14T16:04:02.007Z,6.00
2018-02-14T16:06:29.003Z,5.78
2018-02-14T16:08:55.298Z,5.78
2018-02-14T16:11:21.589Z,6.90
2018-02-14T16:13:47.892Z,8.13
2018-02-14T16:16:14.850Z,6.00
2018-02-14T16:18:41.145Z,5.10
2018-02-14T16:21:07.443Z,6.97
2018-02-14T16:23:34.495Z,6.20
2018-02-14T16:26:01.538Z,6.22
2018-02-14T16:28:28.547Z,6.32
2018-02-14T16:30:54.842Z,6.62
2018-02-14T16:33:21.138Z,6.18
2018-02-14T16:35:47.424Z,7.45
2018-02-14T16:38:13.726Z,8.48
2018-02-14T16:40:40.762Z,7.50
2018-02-14T16:43:07.802Z,7.40
2018-02-14T16:45:34.859Z,7.35
2018-02-14T16:48:01.917Z,7.47
2018-02-14T16:50:28.215Z,6.90
2018-02-14T16:52:54.531Z,7.70
2018-02-14T16:55:20.823Z,8.02
2018-02-14T16:57:47.133Z,7.20
2018-02-14T17:00:13.505Z,7.93
2018-02-14T17:02:39.803Z,7.35
2018-02-14T17:05:06.113Z,7.85
2018-02-14T17:07:33.140Z,8.80
2018-02-14T17:09:59.413Z,8.10
2018-02-14T17:12:26.456Z,8.25
2018-02-14T17:14:53.495Z,8.93
2018-02-14T17:17:20.504Z,8.32
2018-02-14T17:19:46.801Z,6.75
2018-02-14T17:22:13.095Z,8.38
2018-02-14T17:24:40.120Z,8.15
2018-02-14T17:27:06.438Z,7.12
2018-02-14T17:29:32.718Z,9.52
2018-02-14T17:31:59.054Z,7.68
2018-02-14T17:34:26.122Z,8.38
2018-02-14T17:36:52.441Z,8.13
2018-02-14T17:39:18.858Z,9.15
2018-02-14T17:41:45.877Z,7.43
2018-02-14T17:44:12.215Z,8.15
2018-02-14T17:46:38.476Z,8.52
2018-02-14T17:49:04.773Z,9.35
2018-02-14T17:51:31.059Z,7.78
2018-02-14T17:53:57.345Z,8.18
2018-02-14T17:56:24.388Z,8.35
2018-02-14T17:58:51.471Z,9.02
2018-02-14T18:01:17.787Z,9.68
2018-02-14T18:03:44.067Z,8.23
2018-02-14T18:06:10.355Z,8.23
2018-02-14T18:08:36.645Z,10.02
2018-02-14T18:11:03.639Z,9.05
2018-02-14T18:13:29.948Z,8.77
2018-02-14T18:15:56.240Z,7.90
2018-02-14T18:18:22.549Z,9.35
2018-02-14T18:20:48.844Z,8.52
2018-02-14T18:23:15.151Z,9.00
2018-02-14T18:25:41.455Z,8.82
2018-02-14T18:28:07.775Z,8.68
2018-02-14T18:30:34.071Z,8.82
2018-02-14T18:33:00.389Z,10.05
2018-02-14T18:35:27.435Z,8.80
2018-02-14T18:37:54.471Z,8.40
2018-02-14T18:40:20.764Z,9.05
2018-02-14T18:42:47.052Z,9.25
2018-02-14T18:45:13.337Z,7.57
2018-02-14T18:47:39.622Z,8.35
2018-02-14T18:50:05.907Z,8.40
2018-02-14T18:52:32.216Z,9.52
2018-02-14T18:54:58.515Z,8.80
2018-02-14T18:57:24.826Z,9.57
2018-02-14T18:59:51.880Z,8.02
2018-02-14T19:02:18.212Z,9.27
2018-02-14T19:04:44.518Z,8.40
2018-02-14T19:07:10.834Z,9.80
2018-02-14T19:09:37.160Z,9.93
2018-02-14T19:12:03.435Z,9.65
2018-02-14T19:14:29.739Z,9.35
2018-02-14T19:16:56.003Z,9.05
2018-02-14T19:19:22.297Z,7.97
2018-02-14T19:21:48.602Z,8.57
2018-02-14T19:24:14.906Z,7.70
2018-02-14T19:26:41.263Z,9.80
2018-02-14T19:29:07.536Z,10.20
2018-02-14T19:31:34.579Z,8.35
2018-02-14T19:34:01.632Z,8.90
2018-02-14T19:36:28.668Z,9.88
2018-02-14T19:38:54.940Z,9.77
2018-02-14T19:41:21.251Z,9.05
2018-02-14T19:43:47.523Z,7.97
2018-02-14T19:46:13.831Z,7.60
2018-02-14T19:48:40.125Z,8.43
2018-02-14T19:51:07.162Z,9.27
2018-02-14T19:53:33.469Z,8.65
2018-02-14T19:55:59.743Z,10.13
2018-02-14T19:58:26.771Z,9.27
2018-02-14T20:00:53.833Z,10.75
2018-02-14T20:03:20.867Z,10.52
2018-02-14T20:05:47.959Z,9.98
2018-02-14T20:08:14.237Z,9.00
2018-02-14T20:10:40.543Z,9.52
2018-02-14T20:13:06.831Z,11.20
2018-02-14T20:15:33.135Z,9.65
2018-02-14T20:17:59.404Z,10.05
2018-02-14T20:20:25.738Z,8.80
2018-02-14T20:22:52.025Z,10.15
2018-02-14T20:25:19.099Z,10.73
2018-02-14T20:27:46.096Z,11.73
2018-02-14T20:30:12.395Z,9.27
2018-02-14T20:32:38.700Z,10.73
2018-02-14T20:35:05.060Z,10.63
2018-02-14T20:37:38.407Z,10.05
2018-02-14T20:40:04.708Z,10.00
2018-02-14T20:42:31.083Z,11.25
2018-02-14T20:44:58.111Z,10.23
2018-02-14T20:47:24.645Z,11.27
2018-02-14T20:49:50.928Z,10.75
2018-02-14T20:52:17.215Z,9.98
2018-02-14T20:54:44.287Z,10.85
2018-02-14T20:57:11.309Z,10.30
2018-02-14T20:59:38.419Z,9.15
2018-02-14T21:02:04.703Z,9.50
2018-02-14T21:04:31.751Z,11.40
2018-02-14T21:06:58.813Z,11.43
2018-02-14T21:09:25.096Z,12.05
2018-02-14T21:11:51.368Z,11.25
2018-02-14T21:14:18.491Z,10.55
2018-02-14T21:16:44.762Z,11.75
2018-02-14T21:19:11.053Z,11.90
2018-02-14T21:21:39.079Z,10.50
2018-02-14T21:24:05.403Z,12.68
2018-02-14T21:26:31.691Z,12.23
2018-02-14T21:28:58.721Z,12.00
2018-02-14T21:31:25.023Z,12.65
2018-02-14T21:33:51.352Z,11.60
2018-02-14T21:36:17.679Z,11.10
2018-02-14T21:38:43.943Z,11.48
2018-02-14T21:41:10.218Z,10.52
2018-02-14T21:43:36.780Z,11.18
2018-02-14T21:46:03.061Z,10.93
2018-02-14T21:48:30.103Z,11.60
2018-02-14T21:50:57.126Z,11.10
2018-02-14T21:53:23.427Z,11.98
2018-02-14T21:55:49.707Z,10.98
2018-02-14T21:58:15.972Z,11.43
2018-02-14T22:00:42.291Z,12.20
2018-02-14T22:03:09.331Z,11.48
2018-02-14T22:05:36.359Z,9.52
2018-02-14T22:08:02.726Z,11.10
2018-02-14T22:10:29.054Z,11.85
2018-02-14T22:12:56.081Z,11.73
2018-02-14T22:15:23.128Z,10.70
2018-02-14T22:17:49.411Z,11.15
2018-02-14T22:20:15.699Z,12.40
2018-02-14T22:22:42.746Z,11.90
2018-02-14T22:25:09.074Z,11.50
2018-02-14T22:27:35.476Z,13.23
2018-02-14T22:30:02.580Z,10.98
2018-02-14T22:32:29.015Z,14.43
2018-02-14T22:34:55.315Z,12.10
2018-02-14T22:37:22.433Z,11.82
2018-02-14T22:39:49.500Z,11.85
2018-02-14T22:42:16.637Z,12.65
2018-02-14T22:44:42.934Z,12.27
2018-02-14T22:47:09.227Z,12.48
2018-02-14T22:49:36.315Z,11.20
2018-02-14T22:52:02.635Z,14.02
2018-02-14T22:54:28.899Z,12.10
2018-02-14T22:56:55.171Z,12.07
2018-02-14T22:59:21.460Z,12.73
2018-02-14T23:01:47.763Z,13.82
2018-02-14T23:04:14.071Z,11.07
2018-02-14T23:06:40.350Z,12.93
2018-02-14T23:09:06.632Z,14.90
2018-02-14T23:11:33.012Z,12.32
2018-02-14T23:13:59.291Z,10.75
2018-02-14T23:16:25.566Z,13.40
2018-02-14T23:18:51.858Z,11.48
2018-02-14T23:21:18.180Z,10.88
2018-02-14T23:23:44.491Z,13.52
2018-02-14T23:26:11.514Z,12.40
2018-02-14T23:28:37.871Z,12.40
2018-02-14T23:31:04.904Z,14.55
2018-02-14T23:33:31.178Z,12.82
2018-02-14T23:35:57.467Z,11.77
2018-02-14T23:38:24.515Z,14.82
2018-02-14T23:40:50.808Z,13.30
2018-02-14T23:43:17.092Z,12.88
2018-02-14T23:45:44.114Z,13.13
2018-02-14T23:48:10.365Z,13.50
2018-02-14T23:50:37.380Z,12.57
2018-02-14T23:53:03.662Z,12.77
2018-02-14T23:55:29.940Z,12.40
2018-02-14T23:57:56.247Z,14.20
